sensor_id;sensor_type;location;lat;lon;timestamp;P1;durP1;ratioP1;P2;durP2;ratioP2
2338;SDS011;1180;51.438;6.978;2023-07-31T00:00:32;6.90;;;3.30;;
2338;SDS011;1180;51.438;6.978;2023-07-31T00:02:59;6.23;;;3.37;;
2338;SDS011;1180;51.438;6.978;2023-07-31T00:05:24;5.30;;;2.90;;
2338;SDS011;1180;51.438;6.978;2023-07-31T00:07:50;4.67;;;3.40;;
2338;SDS011;1180;51.438;6.978;2023-07-31T00:10:16;5.97;;;3.77;;
2338;SDS011;1180;51.438;6.978;2023-07-31T00:12:42;8.67;;;3.50;;
2338;SDS011;1180;51.438;6.978;2023-07-31T00:15:11;6.20;;;3.60;;
2338;SDS011;1180;51.438;6.978;2023-07-31T00:17:38;8.40;;;4.40;;
2338;SDS011;1180;51.438;6.978;2023-07-31T00:20:04;5.43;;;3.63;;
2338;SDS011;1180;51.438;6.978;2023-07-31T00:22:30;6.93;;;4.17;;
2338;SDS011;1180;51.438;6.978;2023-07-31T00:24:56;6.80;;;3.90;;
2338;SDS011;1180;51.438;6.978;2023-07-31T00:27:23;9.80;;;4.30;;
2338;SDS011;1180;51.438;6.978;2023-07-31T00:29:49;6.50;;;3.60;;
2338;SDS011;1180;51.438;6.978;2023-07-31T00:32:15;7.20;;;4.17;;
2338;SDS011;1180;51.438;6.978;2023-07-31T00:34:41;8.27;;;4.53;;
2338;SDS011;1180;51.438;6.978;2023-07-31T00:37:06;7.07;;;4.50;;
2338;SDS011;1180;51.438;6.978;2023-07-31T00:39:33;5.37;;;3.67;;
2338;SDS011;1180;51.438;6.978;2023-07-31T00:42:00;7.83;;;5.47;;
2338;SDS011;1180;51.438;6.978;2023-07-31T00:44:26;6.83;;;3.97;;
2338;SDS011;1180;51.438;6.978;2023-07-31T00:46:52;5.97;;;3.57;;
2338;SDS011;1180;51.438;6.978;2023-07-31T00:49:17;4.40;;;3.70;;
2338;SDS011;1180;51.438;6.978;2023-07-31T00:51:43;7.63;;;3.60;;
2338;SDS011;1180;51.438;6.978;2023-07-31T00:54:09;5.93;;;3.90;;
2338;SDS011;1180;51.438;6.978;2023-07-31T00:56:39;9.43;;;4.10;;
2338;SDS011;1180;51.438;6.978;2023-07-31T00:59:07;7.37;;;4.27;;
2338;SDS011;1180;51.438;6.978;2023-07-31T01:01:32;9.97;;;4.20;;
2338;SDS011;1180;51.438;6.978;2023-07-31T01:03:58;9.73;;;4.43;;
2338;SDS011;1180;51.438;6.978;2023-07-31T01:09:03;8.87;;;4.23;;
2338;SDS011;1180;51.438;6.978;2023-07-31T01:11:48;7.20;;;4.23;;
2338;SDS011;1180;51.438;6.978;2023-07-31T01:14:18;6.80;;;3.97;;
2338;SDS011;1180;51.438;6.978;2023-07-31T01:16:44;9.13;;;3.83;;
2338;SDS011;1180;51.438;6.978;2023-07-31T01:19:10;5.23;;;3.60;;
2338;SDS011;1180;51.438;6.978;2023-07-31T01:27:28;8.80;;;4.93;;
2338;SDS011;1180;51.438;6.978;2023-07-31T01:29:56;4.43;;;2.90;;
2338;SDS011;1180;51.438;6.978;2023-07-31T01:32:30;6.50;;;3.90;;
2338;SDS011;1180;51.438;6.978;2023-07-31T01:34:57;6.40;;;3.87;;
2338;SDS011;1180;51.438;6.978;2023-07-31T01:37:30;10.50;;;5.13;;
2338;SDS011;1180;51.438;6.978;2023-07-31T01:39:56;7.27;;;4.00;;
2338;SDS011;1180;51.438;6.978;2023-07-31T01:42:22;8.10;;;4.00;;
2338;SDS011;1180;51.438;6.978;2023-07-31T01:44:47;5.70;;;4.00;;
2338;SDS011;1180;51.438;6.978;2023-07-31T01:47:13;7.03;;;3.77;;
2338;SDS011;1180;51.438;6.978;2023-07-31T01:49:39;7.30;;;3.83;;
2338;SDS011;1180;51.438;6.978;2023-07-31T01:52:04;6.00;;;3.43;;
2338;SDS011;1180;51.438;6.978;2023-07-31T01:54:31;6.37;;;3.90;;
2338;SDS011;1180;51.438;6.978;2023-07-31T01:56:56;7.00;;;3.50;;
2338;SDS011;1180;51.438;6.978;2023-07-31T01:59:22;7.93;;;4.07;;
2338;SDS011;1180;51.438;6.978;2023-07-31T02:01:48;5.80;;;3.63;;
2338;SDS011;1180;51.438;6.978;2023-07-31T02:04:13;5.97;;;3.60;;
2338;SDS011;1180;51.438;6.978;2023-07-31T02:06:39;7.50;;;4.90;;
2338;SDS011;1180;51.438;6.978;2023-07-31T02:09:05;5.77;;;4.00;;
2338;SDS011;1180;51.438;6.978;2023-07-31T02:11:31;6.20;;;3.50;;
2338;SDS011;1180;51.438;6.978;2023-07-31T02:13:57;6.70;;;3.70;;
2338;SDS011;1180;51.438;6.978;2023-07-31T02:16:22;5.73;;;4.63;;
2338;SDS011;1180;51.438;6.978;2023-07-31T02:18:48;8.73;;;4.03;;
2338;SDS011;1180;51.438;6.978;2023-07-31T02:21:14;4.77;;;3.37;;
2338;SDS011;1180;51.438;6.978;2023-07-31T02:23:41;12.60;;;4.63;;
2338;SDS011;1180;51.438;6.978;2023-07-31T02:26:06;9.37;;;4.03;;
2338;SDS011;1180;51.438;6.978;2023-07-31T02:28:32;7.30;;;3.50;;
2338;SDS011;1180;51.438;6.978;2023-07-31T02:30:58;10.17;;;4.73;;
2338;SDS011;1180;51.438;6.978;2023-07-31T02:33:23;5.40;;;3.43;;
2338;SDS011;1180;51.438;6.978;2023-07-31T02:35:49;16.30;;;5.17;;
2338;SDS011;1180;51.438;6.978;2023-07-31T02:38:15;10.57;;;4.10;;
2338;SDS011;1180;51.438;6.978;2023-07-31T02:40:40;9.70;;;4.60;;
2338;SDS011;1180;51.438;6.978;2023-07-31T02:43:07;9.80;;;4.20;;
2338;SDS011;1180;51.438;6.978;2023-07-31T02:45:33;9.43;;;4.33;;
2338;SDS011;1180;51.438;6.978;2023-07-31T02:47:59;5.43;;;3.20;;
2338;SDS011;1180;51.438;6.978;2023-07-31T02:50:24;8.80;;;3.23;;
2338;SDS011;1180;51.438;6.978;2023-07-31T02:52:50;8.97;;;4.20;;
2338;SDS011;1180;51.438;6.978;2023-07-31T02:55:16;10.43;;;4.10;;
2338;SDS011;1180;51.438;6.978;2023-07-31T02:57:42;6.30;;;4.50;;
2338;SDS011;1180;51.438;6.978;2023-07-31T03:00:08;8.53;;;3.60;;
2338;SDS011;1180;51.438;6.978;2023-07-31T03:02:34;9.53;;;4.03;;
2338;SDS011;1180;51.438;6.978;2023-07-31T03:05:00;9.63;;;5.93;;
2338;SDS011;1180;51.438;6.978;2023-07-31T03:07:26;10.47;;;4.00;;
2338;SDS011;1180;51.438;6.978;2023-07-31T03:09:52;8.47;;;4.37;;
2338;SDS011;1180;51.438;6.978;2023-07-31T03:12:17;12.67;;;5.63;;
2338;SDS011;1180;51.438;6.978;2023-07-31T03:14:44;10.33;;;4.37;;
2338;SDS011;1180;51.438;6.978;2023-07-31T03:17:10;7.33;;;4.30;;
2338;SDS011;1180;51.438;6.978;2023-07-31T03:19:38;7.63;;;3.83;;
2338;SDS011;1180;51.438;6.978;2023-07-31T03:22:04;5.77;;;4.20;;
2338;SDS011;1180;51.438;6.978;2023-07-31T03:24:31;8.10;;;4.97;;
2338;SDS011;1180;51.438;6.978;2023-07-31T03:26:57;8.30;;;4.40;;
2338;SDS011;1180;51.438;6.978;2023-07-31T03:29:23;5.13;;;3.80;;
2338;SDS011;1180;51.438;6.978;2023-07-31T03:31:49;5.03;;;3.33;;
2338;SDS011;1180;51.438;6.978;2023-07-31T03:34:14;6.23;;;3.90;;
2338;SDS011;1180;51.438;6.978;2023-07-31T03:36:40;7.60;;;3.70;;
2338;SDS011;1180;51.438;6.978;2023-07-31T03:39:06;7.13;;;3.83;;
2338;SDS011;1180;51.438;6.978;2023-07-31T03:41:32;6.50;;;4.60;;
2338;SDS011;1180;51.438;6.978;2023-07-31T03:43:58;8.87;;;3.87;;
2338;SDS011;1180;51.438;6.978;2023-07-31T03:46:24;7.20;;;4.80;;
2338;SDS011;1180;51.438;6.978;2023-07-31T03:48:50;6.20;;;3.70;;
2338;SDS011;1180;51.438;6.978;2023-07-31T03:51:16;6.70;;;3.83;;
2338;SDS011;1180;51.438;6.978;2023-07-31T03:53:42;6.17;;;3.80;;
2338;SDS011;1180;51.438;6.978;2023-07-31T03:56:09;7.90;;;3.87;;
2338;SDS011;1180;51.438;6.978;2023-07-31T03:58:35;11.10;;;3.70;;
2338;SDS011;1180;51.438;6.978;2023-07-31T04:01:02;7.63;;;4.00;;
2338;SDS011;1180;51.438;6.978;2023-07-31T04:03:28;6.10;;;4.10;;
2338;SDS011;1180;51.438;6.978;2023-07-31T04:05:54;8.03;;;4.50;;
2338;SDS011;1180;51.438;6.978;2023-07-31T04:08:23;7.20;;;4.00;;
2338;SDS011;1180;51.438;6.978;2023-07-31T04:10:49;6.93;;;4.13;;
2338;SDS011;1180;51.438;6.978;2023-07-31T04:13:15;7.03;;;3.80;;
2338;SDS011;1180;51.438;6.978;2023-07-31T04:15:41;6.17;;;4.00;;
2338;SDS011;1180;51.438;6.978;2023-07-31T04:18:07;5.97;;;4.10;;
2338;SDS011;1180;51.438;6.978;2023-07-31T04:20:33;7.43;;;3.93;;
2338;SDS011;1180;51.438;6.978;2023-07-31T04:22:59;11.13;;;4.30;;
2338;SDS011;1180;51.438;6.978;2023-07-31T04:25:25;3.63;;;3.10;;
2338;SDS011;1180;51.438;6.978;2023-07-31T04:27:50;6.97;;;4.07;;
2338;SDS011;1180;51.438;6.978;2023-07-31T04:30:16;6.20;;;4.20;;
2338;SDS011;1180;51.438;6.978;2023-07-31T04:32:42;4.40;;;3.80;;
2338;SDS011;1180;51.438;6.978;2023-07-31T04:35:08;5.97;;;4.13;;
2338;SDS011;1180;51.438;6.978;2023-07-31T04:37:34;4.80;;;3.77;;
2338;SDS011;1180;51.438;6.978;2023-07-31T04:39:59;6.37;;;3.77;;
2338;SDS011;1180;51.438;6.978;2023-07-31T04:42:25;6.27;;;3.70;;
2338;SDS011;1180;51.438;6.978;2023-07-31T04:44:51;6.70;;;3.90;;
2338;SDS011;1180;51.438;6.978;2023-07-31T04:47:19;5.30;;;3.20;;
2338;SDS011;1180;51.438;6.978;2023-07-31T04:49:45;7.27;;;4.37;;
2338;SDS011;1180;51.438;6.978;2023-07-31T04:52:11;8.10;;;3.30;;
2338;SDS011;1180;51.438;6.978;2023-07-31T04:54:36;6.97;;;3.37;;
2338;SDS011;1180;51.438;6.978;2023-07-31T04:57:02;6.53;;;3.70;;
2338;SDS011;1180;51.438;6.978;2023-07-31T04:59:28;7.50;;;4.13;;
2338;SDS011;1180;51.438;6.978;2023-07-31T05:01:54;8.60;;;5.00;;
2338;SDS011;1180;51.438;6.978;2023-07-31T05:04:20;6.70;;;4.17;;
2338;SDS011;1180;51.438;6.978;2023-07-31T05:06:46;6.30;;;3.50;;
2338;SDS011;1180;51.438;6.978;2023-07-31T05:09:11;6.60;;;4.97;;
2338;SDS011;1180;51.438;6.978;2023-07-31T05:11:38;10.63;;;5.30;;
2338;SDS011;1180;51.438;6.978;2023-07-31T05:14:05;6.10;;;3.30;;
2338;SDS011;1180;51.438;6.978;2023-07-31T05:16:31;8.63;;;3.90;;
2338;SDS011;1180;51.438;6.978;2023-07-31T05:18:59;6.20;;;4.03;;
2338;SDS011;1180;51.438;6.978;2023-07-31T05:21:25;7.83;;;3.97;;
2338;SDS011;1180;51.438;6.978;2023-07-31T05:23:50;7.93;;;4.80;;
2338;SDS011;1180;51.438;6.978;2023-07-31T05:26:16;5.40;;;3.70;;
2338;SDS011;1180;51.438;6.978;2023-07-31T05:28:42;6.73;;;4.50;;
2338;SDS011;1180;51.438;6.978;2023-07-31T05:31:08;7.00;;;4.57;;
2338;SDS011;1180;51.438;6.978;2023-07-31T05:33:34;6.60;;;4.50;;
2338;SDS011;1180;51.438;6.978;2023-07-31T05:35:59;10.10;;;3.70;;
2338;SDS011;1180;51.438;6.978;2023-07-31T05:38:25;8.50;;;4.23;;
2338;SDS011;1180;51.438;6.978;2023-07-31T05:40:51;10.67;;;5.00;;
2338;SDS011;1180;51.438;6.978;2023-07-31T05:43:17;7.97;;;5.30;;
2338;SDS011;1180;51.438;6.978;2023-07-31T05:45:42;6.47;;;4.00;;
2338;SDS011;1180;51.438;6.978;2023-07-31T05:48:08;5.23;;;3.90;;
2338;SDS011;1180;51.438;6.978;2023-07-31T05:50:34;8.13;;;4.50;;
2338;SDS011;1180;51.438;6.978;2023-07-31T05:53:00;5.13;;;4.20;;
2338;SDS011;1180;51.438;6.978;2023-07-31T05:55:26;7.47;;;4.60;;
2338;SDS011;1180;51.438;6.978;2023-07-31T05:57:54;7.17;;;5.17;;
2338;SDS011;1180;51.438;6.978;2023-07-31T06:00:20;5.43;;;3.60;;
2338;SDS011;1180;51.438;6.978;2023-07-31T06:02:49;4.50;;;4.00;;
2338;SDS011;1180;51.438;6.978;2023-07-31T06:05:15;5.03;;;3.23;;
2338;SDS011;1180;51.438;6.978;2023-07-31T06:07:41;5.13;;;4.30;;
2338;SDS011;1180;51.438;6.978;2023-07-31T06:10:06;7.23;;;4.37;;
2338;SDS011;1180;51.438;6.978;2023-07-31T06:12:33;5.37;;;3.83;;
2338;SDS011;1180;51.438;6.978;2023-07-31T06:14:59;6.07;;;4.40;;
2338;SDS011;1180;51.438;6.978;2023-07-31T06:17:25;5.60;;;4.20;;
2338;SDS011;1180;51.438;6.978;2023-07-31T06:19:51;7.90;;;4.30;;
2338;SDS011;1180;51.438;6.978;2023-07-31T06:22:18;5.97;;;4.17;;
2338;SDS011;1180;51.438;6.978;2023-07-31T06:24:44;4.40;;;3.60;;
2338;SDS011;1180;51.438;6.978;2023-07-31T06:27:10;5.53;;;4.47;;
2338;SDS011;1180;51.438;6.978;2023-07-31T06:29:36;10.40;;;4.90;;
2338;SDS011;1180;51.438;6.978;2023-07-31T06:32:02;5.37;;;4.13;;
2338;SDS011;1180;51.438;6.978;2023-07-31T06:34:28;5.50;;;4.17;;
2338;SDS011;1180;51.438;6.978;2023-07-31T06:36:54;6.10;;;3.77;;
2338;SDS011;1180;51.438;6.978;2023-07-31T06:39:23;9.10;;;4.40;;
2338;SDS011;1180;51.438;6.978;2023-07-31T06:41:49;4.77;;;3.93;;
2338;SDS011;1180;51.438;6.978;2023-07-31T06:44:15;7.37;;;4.03;;
2338;SDS011;1180;51.438;6.978;2023-07-31T06:46:42;5.03;;;4.00;;
2338;SDS011;1180;51.438;6.978;2023-07-31T06:49:07;5.97;;;4.50;;
2338;SDS011;1180;51.438;6.978;2023-07-31T06:51:33;6.07;;;4.10;;
2338;SDS011;1180;51.438;6.978;2023-07-31T06:54:01;6.20;;;4.10;;
2338;SDS011;1180;51.438;6.978;2023-07-31T06:56:26;6.57;;;4.33;;
2338;SDS011;1180;51.438;6.978;2023-07-31T06:58:52;4.47;;;3.67;;
2338;SDS011;1180;51.438;6.978;2023-07-31T07:01:18;7.60;;;4.27;;
2338;SDS011;1180;51.438;6.978;2023-07-31T07:03:44;4.97;;;3.33;;
2338;SDS011;1180;51.438;6.978;2023-07-31T07:06:09;6.53;;;4.33;;
2338;SDS011;1180;51.438;6.978;2023-07-31T07:08:35;8.47;;;3.60;;
2338;SDS011;1180;51.438;6.978;2023-07-31T07:11:01;4.10;;;3.30;;
2338;SDS011;1180;51.438;6.978;2023-07-31T07:13:26;4.97;;;3.57;;
2338;SDS011;1180;51.438;6.978;2023-07-31T07:15:52;5.53;;;4.17;;
2338;SDS011;1180;51.438;6.978;2023-07-31T07:18:18;5.50;;;4.00;;
2338;SDS011;1180;51.438;6.978;2023-07-31T07:20:52;4.77;;;3.97;;
2338;SDS011;1180;51.438;6.978;2023-07-31T07:23:18;5.13;;;3.47;;
2338;SDS011;1180;51.438;6.978;2023-07-31T07:25:45;6.03;;;4.93;;
2338;SDS011;1180;51.438;6.978;2023-07-31T07:28:12;7.30;;;4.07;;
2338;SDS011;1180;51.438;6.978;2023-07-31T07:30:38;5.33;;;3.43;;
2338;SDS011;1180;51.438;6.978;2023-07-31T07:33:04;3.50;;;3.20;;
2338;SDS011;1180;51.438;6.978;2023-07-31T07:35:32;7.57;;;4.27;;
2338;SDS011;1180;51.438;6.978;2023-07-31T07:37:59;7.13;;;4.17;;
2338;SDS011;1180;51.438;6.978;2023-07-31T07:40:25;5.73;;;3.80;;
2338;SDS011;1180;51.438;6.978;2023-07-31T07:42:51;5.00;;;3.50;;
2338;SDS011;1180;51.438;6.978;2023-07-31T07:45:17;3.40;;;2.77;;
2338;SDS011;1180;51.438;6.978;2023-07-31T07:47:43;4.73;;;3.70;;
2338;SDS011;1180;51.438;6.978;2023-07-31T07:50:08;4.13;;;2.97;;
2338;SDS011;1180;51.438;6.978;2023-07-31T07:52:34;5.67;;;3.40;;
2338;SDS011;1180;51.438;6.978;2023-07-31T07:55:00;5.90;;;5.03;;
2338;SDS011;1180;51.438;6.978;2023-07-31T07:57:27;4.10;;;3.07;;
2338;SDS011;1180;51.438;6.978;2023-07-31T07:59:53;5.20;;;3.10;;
2338;SDS011;1180;51.438;6.978;2023-07-31T08:02:19;4.50;;;3.27;;
2338;SDS011;1180;51.438;6.978;2023-07-31T08:04:45;4.10;;;2.70;;
2338;SDS011;1180;51.438;6.978;2023-07-31T08:07:11;4.07;;;3.13;;
2338;SDS011;1180;51.438;6.978;2023-07-31T08:09:40;3.60;;;2.73;;
2338;SDS011;1180;51.438;6.978;2023-07-31T08:12:06;3.63;;;3.10;;
2338;SDS011;1180;51.438;6.978;2023-07-31T08:14:33;6.17;;;3.27;;
2338;SDS011;1180;51.438;6.978;2023-07-31T08:16:59;4.80;;;2.90;;
2338;SDS011;1180;51.438;6.978;2023-07-31T08:19:25;3.67;;;2.60;;
2338;SDS011;1180;51.438;6.978;2023-07-31T08:21:51;5.07;;;3.00;;
2338;SDS011;1180;51.438;6.978;2023-07-31T08:24:17;4.60;;;3.20;;
2338;SDS011;1180;51.438;6.978;2023-07-31T08:26:43;4.00;;;3.00;;
2338;SDS011;1180;51.438;6.978;2023-07-31T08:29:08;3.60;;;2.60;;
2338;SDS011;1180;51.438;6.978;2023-07-31T08:31:34;4.60;;;2.17;;
2338;SDS011;1180;51.438;6.978;2023-07-31T08:34:00;3.83;;;2.40;;
2338;SDS011;1180;51.438;6.978;2023-07-31T08:36:26;3.10;;;2.90;;
2338;SDS011;1180;51.438;6.978;2023-07-31T08:38:52;3.90;;;3.30;;
2338;SDS011;1180;51.438;6.978;2023-07-31T08:41:18;3.40;;;2.57;;
2338;SDS011;1180;51.438;6.978;2023-07-31T08:43:44;3.93;;;2.43;;
2338;SDS011;1180;51.438;6.978;2023-07-31T08:46:11;5.87;;;3.43;;
2338;SDS011;1180;51.438;6.978;2023-07-31T08:48:39;3.40;;;3.10;;
2338;SDS011;1180;51.438;6.978;2023-07-31T08:51:07;3.03;;;2.73;;
2338;SDS011;1180;51.438;6.978;2023-07-31T08:53:32;3.10;;;2.37;;
2338;SDS011;1180;51.438;6.978;2023-07-31T08:55:59;2.73;;;2.50;;
2338;SDS011;1180;51.438;6.978;2023-07-31T08:58:25;3.03;;;2.17;;
2338;SDS011;1180;51.438;6.978;2023-07-31T09:00:52;5.00;;;2.90;;
2338;SDS011;1180;51.438;6.978;2023-07-31T09:03:22;3.80;;;2.50;;
2338;SDS011;1180;51.438;6.978;2023-07-31T09:05:50;4.23;;;2.77;;
2338;SDS011;1180;51.438;6.978;2023-07-31T09:08:20;5.90;;;2.70;;
2338;SDS011;1180;51.438;6.978;2023-07-31T09:10:47;4.40;;;2.13;;
2338;SDS011;1180;51.438;6.978;2023-07-31T09:13:15;4.27;;;2.30;;
2338;SDS011;1180;51.438;6.978;2023-07-31T09:15:45;3.40;;;2.70;;
2338;SDS011;1180;51.438;6.978;2023-07-31T09:18:11;2.50;;;2.10;;
2338;SDS011;1180;51.438;6.978;2023-07-31T09:20:38;2.10;;;1.90;;
2338;SDS011;1180;51.438;6.978;2023-07-31T09:25:34;4.00;;;2.77;;
2338;SDS011;1180;51.438;6.978;2023-07-31T09:28:01;3.43;;;2.07;;
2338;SDS011;1180;51.438;6.978;2023-07-31T09:30:32;2.83;;;2.30;;
2338;SDS011;1180;51.438;6.978;2023-07-31T09:33:18;3.07;;;2.77;;
2338;SDS011;1180;51.438;6.978;2023-07-31T09:35:53;4.37;;;1.90;;
2338;SDS011;1180;51.438;6.978;2023-07-31T09:38:19;2.33;;;2.10;;
2338;SDS011;1180;51.438;6.978;2023-07-31T09:40:47;2.40;;;2.20;;
2338;SDS011;1180;51.438;6.978;2023-07-31T09:43:25;3.10;;;1.90;;
2338;SDS011;1180;51.438;6.978;2023-07-31T09:45:55;2.60;;;1.93;;
2338;SDS011;1180;51.438;6.978;2023-07-31T09:48:23;2.30;;;1.77;;
2338;SDS011;1180;51.438;6.978;2023-07-31T09:50:52;2.20;;;2.00;;
2338;SDS011;1180;51.438;6.978;2023-07-31T09:53:19;2.33;;;1.83;;
2338;SDS011;1180;51.438;6.978;2023-07-31T09:56:00;2.60;;;1.80;;
2338;SDS011;1180;51.438;6.978;2023-07-31T09:58:27;2.10;;;1.90;;
2338;SDS011;1180;51.438;6.978;2023-07-31T10:00:54;4.27;;;1.73;;
2338;SDS011;1180;51.438;6.978;2023-07-31T10:03:22;2.40;;;1.80;;
2338;SDS011;1180;51.438;6.978;2023-07-31T10:05:50;1.70;;;1.50;;
2338;SDS011;1180;51.438;6.978;2023-07-31T10:08:16;1.60;;;1.50;;
2338;SDS011;1180;51.438;6.978;2023-07-31T10:10:46;3.27;;;2.00;;
2338;SDS011;1180;51.438;6.978;2023-07-31T10:13:12;2.80;;;2.50;;
2338;SDS011;1180;51.438;6.978;2023-07-31T10:15:39;2.33;;;2.13;;
2338;SDS011;1180;51.438;6.978;2023-07-31T10:18:09;2.13;;;1.93;;
2338;SDS011;1180;51.438;6.978;2023-07-31T10:20:37;3.23;;;2.00;;
2338;SDS011;1180;51.438;6.978;2023-07-31T10:23:03;2.47;;;2.27;;
2338;SDS011;1180;51.438;6.978;2023-07-31T10:25:29;1.97;;;1.60;;
2338;SDS011;1180;51.438;6.978;2023-07-31T10:27:55;2.63;;;2.20;;
2338;SDS011;1180;51.438;6.978;2023-07-31T10:30:25;2.63;;;2.43;;
2338;SDS011;1180;51.438;6.978;2023-07-31T10:32:53;2.40;;;2.20;;
2338;SDS011;1180;51.438;6.978;2023-07-31T10:35:19;3.13;;;2.37;;
2338;SDS011;1180;51.438;6.978;2023-07-31T10:37:47;3.63;;;2.43;;
2338;SDS011;1180;51.438;6.978;2023-07-31T10:40:17;4.20;;;3.23;;
2338;SDS011;1180;51.438;6.978;2023-07-31T10:42:49;3.80;;;2.60;;
2338;SDS011;1180;51.438;6.978;2023-07-31T10:45:33;2.60;;;2.40;;
2338;SDS011;1180;51.438;6.978;2023-07-31T10:50:40;3.17;;;2.43;;
2338;SDS011;1180;51.438;6.978;2023-07-31T10:55:50;3.00;;;2.63;;
2338;SDS011;1180;51.438;6.978;2023-07-31T10:58:18;3.20;;;2.90;;
2338;SDS011;1180;51.438;6.978;2023-07-31T11:00:45;2.97;;;2.37;;
2338;SDS011;1180;51.438;6.978;2023-07-31T11:03:15;3.10;;;2.80;;
2338;SDS011;1180;51.438;6.978;2023-07-31T11:05:52;4.57;;;3.17;;
2338;SDS011;1180;51.438;6.978;2023-07-31T11:08:25;3.53;;;3.07;;
2338;SDS011;1180;51.438;6.978;2023-07-31T11:13:30;3.47;;;3.00;;
2338;SDS011;1180;51.438;6.978;2023-07-31T11:16:00;3.27;;;2.60;;
2338;SDS011;1180;51.438;6.978;2023-07-31T11:18:26;3.33;;;2.60;;
2338;SDS011;1180;51.438;6.978;2023-07-31T11:20:52;11.17;;;3.17;;
2338;SDS011;1180;51.438;6.978;2023-07-31T11:23:19;3.30;;;2.50;;
2338;SDS011;1180;51.438;6.978;2023-07-31T11:25:45;5.47;;;3.40;;
2338;SDS011;1180;51.438;6.978;2023-07-31T11:28:12;5.70;;;3.13;;
2338;SDS011;1180;51.438;6.978;2023-07-31T11:30:40;3.60;;;3.10;;
2338;SDS011;1180;51.438;6.978;2023-07-31T11:33:07;3.90;;;2.90;;
2338;SDS011;1180;51.438;6.978;2023-07-31T11:35:44;3.83;;;3.13;;
2338;SDS011;1180;51.438;6.978;2023-07-31T11:38:12;3.80;;;2.90;;
2338;SDS011;1180;51.438;6.978;2023-07-31T11:40:47;3.77;;;3.27;;
2338;SDS011;1180;51.438;6.978;2023-07-31T11:43:12;2.70;;;2.10;;
2338;SDS011;1180;51.438;6.978;2023-07-31T11:45:42;3.80;;;2.47;;
2338;SDS011;1180;51.438;6.978;2023-07-31T11:48:18;3.23;;;2.73;;
2338;SDS011;1180;51.438;6.978;2023-07-31T11:50:59;5.20;;;3.27;;
2338;SDS011;1180;51.438;6.978;2023-07-31T11:56:03;2.30;;;2.10;;
2338;SDS011;1180;51.438;6.978;2023-07-31T11:58:30;2.73;;;2.50;;
2338;SDS011;1180;51.438;6.978;2023-07-31T12:00:58;2.33;;;2.10;;
2338;SDS011;1180;51.438;6.978;2023-07-31T12:03:25;2.70;;;2.20;;
2338;SDS011;1180;51.438;6.978;2023-07-31T12:05:52;2.17;;;1.97;;
2338;SDS011;1180;51.438;6.978;2023-07-31T12:08:20;2.37;;;2.03;;
2338;SDS011;1180;51.438;6.978;2023-07-31T12:10:46;3.50;;;2.97;;
2338;SDS011;1180;51.438;6.978;2023-07-31T12:13:22;2.50;;;2.30;;
2338;SDS011;1180;51.438;6.978;2023-07-31T12:15:54;2.27;;;2.07;;
2338;SDS011;1180;51.438;6.978;2023-07-31T12:18:23;2.70;;;2.07;;
2338;SDS011;1180;51.438;6.978;2023-07-31T12:20:59;2.83;;;2.10;;
2338;SDS011;1180;51.438;6.978;2023-07-31T12:23:30;2.30;;;2.10;;
2338;SDS011;1180;51.438;6.978;2023-07-31T12:26:03;3.63;;;2.03;;
2338;SDS011;1180;51.438;6.978;2023-07-31T12:28:35;2.40;;;1.90;;
2338;SDS011;1180;51.438;6.978;2023-07-31T12:31:07;2.77;;;1.93;;
2338;SDS011;1180;51.438;6.978;2023-07-31T12:33:35;2.13;;;1.90;;
2338;SDS011;1180;51.438;6.978;2023-07-31T12:36:04;2.10;;;1.90;;
2338;SDS011;1180;51.438;6.978;2023-07-31T12:38:33;2.10;;;1.90;;
2338;SDS011;1180;51.438;6.978;2023-07-31T12:40:59;2.30;;;1.90;;
2338;SDS011;1180;51.438;6.978;2023-07-31T12:43:25;2.97;;;1.93;;
2338;SDS011;1180;51.438;6.978;2023-07-31T12:45:51;3.53;;;2.20;;
2338;SDS011;1180;51.438;6.978;2023-07-31T12:48:16;2.93;;;1.93;;
2338;SDS011;1180;51.438;6.978;2023-07-31T12:50:42;3.43;;;2.00;;
2338;SDS011;1180;51.438;6.978;2023-07-31T12:53:08;2.13;;;1.73;;
2338;SDS011;1180;51.438;6.978;2023-07-31T12:55:34;1.60;;;1.50;;
2338;SDS011;1180;51.438;6.978;2023-07-31T12:58:01;4.20;;;1.90;;
2338;SDS011;1180;51.438;6.978;2023-07-31T13:00:28;3.40;;;1.70;;
2338;SDS011;1180;51.438;6.978;2023-07-31T13:02:54;3.90;;;2.67;;
2338;SDS011;1180;51.438;6.978;2023-07-31T13:05:20;1.93;;;1.63;;
2338;SDS011;1180;51.438;6.978;2023-07-31T13:07:46;2.47;;;1.60;;
2338;SDS011;1180;51.438;6.978;2023-07-31T13:10:12;2.80;;;2.07;;
2338;SDS011;1180;51.438;6.978;2023-07-31T13:12:38;3.07;;;2.17;;
2338;SDS011;1180;51.438;6.978;2023-07-31T13:15:04;1.63;;;1.47;;
2338;SDS011;1180;51.438;6.978;2023-07-31T13:17:31;1.93;;;1.77;;
2338;SDS011;1180;51.438;6.978;2023-07-31T13:19:59;2.03;;;1.83;;
2338;SDS011;1180;51.438;6.978;2023-07-31T13:22:25;3.57;;;2.27;;
2338;SDS011;1180;51.438;6.978;2023-07-31T13:24:51;2.03;;;1.70;;
2338;SDS011;1180;51.438;6.978;2023-07-31T13:27:19;2.23;;;2.03;;
2338;SDS011;1180;51.438;6.978;2023-07-31T13:29:47;4.70;;;2.23;;
2338;SDS011;1180;51.438;6.978;2023-07-31T13:32:14;2.20;;;2.00;;
2338;SDS011;1180;51.438;6.978;2023-07-31T13:34:41;2.17;;;1.93;;
2338;SDS011;1180;51.438;6.978;2023-07-31T13:37:06;3.70;;;3.00;;
2338;SDS011;1180;51.438;6.978;2023-07-31T13:39:32;2.63;;;2.43;;
2338;SDS011;1180;51.438;6.978;2023-07-31T13:41:59;3.40;;;2.80;;
2338;SDS011;1180;51.438;6.978;2023-07-31T13:44:25;3.63;;;2.93;;
2338;SDS011;1180;51.438;6.978;2023-07-31T13:46:51;3.60;;;2.80;;
2338;SDS011;1180;51.438;6.978;2023-07-31T13:49:17;2.50;;;2.30;;
2338;SDS011;1180;51.438;6.978;2023-07-31T13:51:43;3.17;;;2.87;;
2338;SDS011;1180;51.438;6.978;2023-07-31T13:54:09;3.90;;;2.50;;
2338;SDS011;1180;51.438;6.978;2023-07-31T13:56:36;2.70;;;2.50;;
2338;SDS011;1180;51.438;6.978;2023-07-31T13:59:03;3.70;;;3.13;;
2338;SDS011;1180;51.438;6.978;2023-07-31T14:01:28;3.30;;;2.50;;
2338;SDS011;1180;51.438;6.978;2023-07-31T14:03:55;4.17;;;2.90;;
2338;SDS011;1180;51.438;6.978;2023-07-31T14:06:21;3.30;;;3.00;;
2338;SDS011;1180;51.438;6.978;2023-07-31T14:08:47;2.90;;;2.60;;
2338;SDS011;1180;51.438;6.978;2023-07-31T14:11:12;3.10;;;2.73;;
2338;SDS011;1180;51.438;6.978;2023-07-31T14:13:38;5.47;;;3.83;;
2338;SDS011;1180;51.438;6.978;2023-07-31T14:16:04;5.57;;;2.70;;
2338;SDS011;1180;51.438;6.978;2023-07-31T14:18:31;3.90;;;3.13;;
2338;SDS011;1180;51.438;6.978;2023-07-31T14:20:57;3.80;;;3.30;;
2338;SDS011;1180;51.438;6.978;2023-07-31T14:23:23;3.73;;;2.67;;
2338;SDS011;1180;51.438;6.978;2023-07-31T14:25:49;3.30;;;3.00;;
2338;SDS011;1180;51.438;6.978;2023-07-31T14:28:14;3.30;;;2.80;;
2338;SDS011;1180;51.438;6.978;2023-07-31T14:30:40;3.30;;;3.00;;
2338;SDS011;1180;51.438;6.978;2023-07-31T14:33:06;4.27;;;2.80;;
2338;SDS011;1180;51.438;6.978;2023-07-31T14:35:33;5.60;;;3.00;;
2338;SDS011;1180;51.438;6.978;2023-07-31T14:38:00;6.33;;;3.80;;
2338;SDS011;1180;51.438;6.978;2023-07-31T14:40:25;3.93;;;3.20;;
2338;SDS011;1180;51.438;6.978;2023-07-31T14:42:51;2.97;;;2.67;;
2338;SDS011;1180;51.438;6.978;2023-07-31T14:45:17;3.43;;;3.13;;
2338;SDS011;1180;51.438;6.978;2023-07-31T14:47:42;6.33;;;4.13;;
2338;SDS011;1180;51.438;6.978;2023-07-31T14:50:08;3.87;;;3.30;;
2338;SDS011;1180;51.438;6.978;2023-07-31T14:52:34;3.53;;;2.93;;
2338;SDS011;1180;51.438;6.978;2023-07-31T14:55:00;3.80;;;3.20;;
2338;SDS011;1180;51.438;6.978;2023-07-31T14:57:26;2.83;;;2.53;;
2338;SDS011;1180;51.438;6.978;2023-07-31T14:59:52;4.03;;;3.10;;
2338;SDS011;1180;51.438;6.978;2023-07-31T15:02:17;3.00;;;2.53;;
2338;SDS011;1180;51.438;6.978;2023-07-31T15:04:43;4.87;;;2.87;;
2338;SDS011;1180;51.438;6.978;2023-07-31T15:07:09;3.50;;;2.60;;
2338;SDS011;1180;51.438;6.978;2023-07-31T15:09:35;4.30;;;3.50;;
2338;SDS011;1180;51.438;6.978;2023-07-31T15:12:00;4.03;;;3.63;;
2338;SDS011;1180;51.438;6.978;2023-07-31T15:14:26;4.80;;;2.90;;
2338;SDS011;1180;51.438;6.978;2023-07-31T15:16:56;4.40;;;3.33;;
2338;SDS011;1180;51.438;6.978;2023-07-31T15:19:21;3.50;;;3.00;;
2338;SDS011;1180;51.438;6.978;2023-07-31T15:21:48;4.70;;;3.60;;
2338;SDS011;1180;51.438;6.978;2023-07-31T15:24:14;4.13;;;3.07;;
2338;SDS011;1180;51.438;6.978;2023-07-31T15:26:40;5.00;;;3.40;;
2338;SDS011;1180;51.438;6.978;2023-07-31T15:29:07;4.20;;;3.80;;
2338;SDS011;1180;51.438;6.978;2023-07-31T15:31:43;4.20;;;3.47;;
2338;SDS011;1180;51.438;6.978;2023-07-31T15:34:09;3.50;;;3.20;;